sensor_id;sensor_type;location;lat;lon;timestamp;P1;durP1;ratioP1;P2;durP2;ratioP2
9424;SDS011;17139;52.140;11.636;2024-03-02T00:02:24;37.50;;;21.60;;
9424;SDS011;17139;52.140;11.636;2024-03-02T00:04:50;35.40;;;21.03;;
9424;SDS011;17139;52.140;11.636;2024-03-02T00:07:17;32.57;;;21.83;;
9424;SDS011;17139;52.140;11.636;2024-03-02T00:09:43;38.10;;;21.03;;
9424;SDS011;17139;52.140;11.636;2024-03-02T00:12:10;30.93;;;21.23;;
9424;SDS011;17139;52.140;11.636;2024-03-02T00:14:40;39.20;;;22.83;;
9424;SDS011;17139;52.140;11.636;2024-03-02T00:17:06;34.77;;;21.20;;
9424;SDS011;17139;52.140;11.636;2024-03-02T00:19:42;33.03;;;20.20;;
9424;SDS011;17139;52.140;11.636;2024-03-02T00:22:08;53.65;;;31.70;;
9424;SDS011;17139;52.140;11.636;2024-03-02T00:24:36;39.73;;;22.87;;
9424;SDS011;17139;52.140;11.636;2024-03-02T00:27:02;40.33;;;23.37;;
9424;SDS011;17139;52.140;11.636;2024-03-02T00:29:30;35.40;;;21.50;;
9424;SDS011;17139;52.140;11.636;2024-03-02T00:31:56;33.63;;;21.30;;
9424;SDS011;17139;52.140;11.636;2024-03-02T00:34:23;36.87;;;21.97;;
9424;SDS011;17139;52.140;11.636;2024-03-02T00:36:49;41.13;;;22.20;;
9424;SDS011;17139;52.140;11.636;2024-03-02T00:39:15;40.63;;;21.80;;
9424;SDS011;17139;52.140;11.636;2024-03-02T00:41:43;40.23;;;21.33;;
9424;SDS011;17139;52.140;11.636;2024-03-02T00:44:10;33.40;;;21.73;;
9424;SDS011;17139;52.140;11.636;2024-03-02T00:46:38;32.63;;;21.10;;
9424;SDS011;17139;52.140;11.636;2024-03-02T00:49:05;38.47;;;21.63;;
9424;SDS011;17139;52.140;11.636;2024-03-02T00:51:36;37.20;;;21.50;;
9424;SDS011;17139;52.140;11.636;2024-03-02T00:54:03;35.20;;;21.20;;
9424;SDS011;17139;52.140;11.636;2024-03-02T00:56:30;35.70;;;20.83;;
9424;SDS011;17139;52.140;11.636;2024-03-02T00:58:58;35.40;;;21.67;;
9424;SDS011;17139;52.140;11.636;2024-03-02T01:01:24;40.37;;;21.43;;
9424;SDS011;17139;52.140;11.636;2024-03-02T01:03:50;33.07;;;19.73;;
9424;SDS011;17139;52.140;11.636;2024-03-02T01:06:16;35.63;;;21.03;;
9424;SDS011;17139;52.140;11.636;2024-03-02T01:08:42;39.77;;;21.20;;
9424;SDS011;17139;52.140;11.636;2024-03-02T01:11:08;28.97;;;20.00;;
9424;SDS011;17139;52.140;11.636;2024-03-02T01:13:34;39.20;;;22.57;;
9424;SDS011;17139;52.140;11.636;2024-03-02T01:16:02;36.40;;;21.93;;
9424;SDS011;17139;52.140;11.636;2024-03-02T01:18:28;44.30;;;28.23;;
9424;SDS011;17139;52.140;11.636;2024-03-02T01:20:54;37.27;;;23.33;;
9424;SDS011;17139;52.140;11.636;2024-03-02T01:23:20;37.80;;;22.40;;
9424;SDS011;17139;52.140;11.636;2024-03-02T01:25:46;35.10;;;21.77;;
9424;SDS011;17139;52.140;11.636;2024-03-02T01:28:13;33.97;;;21.43;;
9424;SDS011;17139;52.140;11.636;2024-03-02T01:30:39;35.17;;;20.63;;
9424;SDS011;17139;52.140;11.636;2024-03-02T01:33:06;34.27;;;20.73;;
9424;SDS011;17139;52.140;11.636;2024-03-02T01:35:33;35.40;;;22.00;;
9424;SDS011;17139;52.140;11.636;2024-03-02T01:37:59;29.80;;;21.27;;
9424;SDS011;17139;52.140;11.636;2024-03-02T01:40:25;29.97;;;20.03;;
9424;SDS011;17139;52.140;11.636;2024-03-02T01:42:50;32.30;;;20.73;;
9424;SDS011;17139;52.140;11.636;2024-03-02T01:45:17;35.90;;;22.93;;
9424;SDS011;17139;52.140;11.636;2024-03-02T01:47:43;31.50;;;20.90;;
9424;SDS011;17139;52.140;11.636;2024-03-02T01:50:11;36.47;;;20.90;;
9424;SDS011;17139;52.140;11.636;2024-03-02T01:52:37;32.77;;;21.77;;
9424;SDS011;17139;52.140;11.636;2024-03-02T01:55:03;33.07;;;20.93;;
9424;SDS011;17139;52.140;11.636;2024-03-02T01:57:30;36.17;;;21.03;;
9424;SDS011;17139;52.140;11.636;2024-03-02T01:59:56;51.88;;;32.10;;
9424;SDS011;17139;52.140;11.636;2024-03-02T02:02:22;35.80;;;23.83;;
9424;SDS011;17139;52.140;11.636;2024-03-02T02:04:48;32.70;;;21.03;;
9424;SDS011;17139;52.140;11.636;2024-03-02T02:07:15;51.28;;;30.90;;
9424;SDS011;17139;52.140;11.636;2024-03-02T02:09:41;39.97;;;24.33;;
9424;SDS011;17139;52.140;11.636;2024-03-02T02:12:07;34.53;;;22.27;;
9424;SDS011;17139;52.140;11.636;2024-03-02T02:14:34;34.57;;;22.80;;
9424;SDS011;17139;52.140;11.636;2024-03-02T02:17:00;42.37;;;22.60;;
9424;SDS011;17139;52.140;11.636;2024-03-02T02:19:26;35.63;;;21.37;;
9424;SDS011;17139;52.140;11.636;2024-03-02T02:21:53;33.00;;;21.33;;
9424;SDS011;17139;52.140;11.636;2024-03-02T02:24:19;29.60;;;20.57;;
9424;SDS011;17139;52.140;11.636;2024-03-02T02:26:45;35.00;;;21.00;;
9424;SDS011;17139;52.140;11.636;2024-03-02T02:29:11;34.67;;;19.97;;
9424;SDS011;17139;52.140;11.636;2024-03-02T02:31:37;36.03;;;21.60;;
9424;SDS011;17139;52.140;11.636;2024-03-02T02:34:03;37.20;;;22.60;;
9424;SDS011;17139;52.140;11.636;2024-03-02T02:36:29;33.97;;;21.87;;
9424;SDS011;17139;52.140;11.636;2024-03-02T02:38:56;36.30;;;22.43;;
9424;SDS011;17139;52.140;11.636;2024-03-02T02:41:22;30.23;;;20.13;;
9424;SDS011;17139;52.140;11.636;2024-03-02T02:43:48;33.40;;;20.83;;
9424;SDS011;17139;52.140;11.636;2024-03-02T02:46:14;35.67;;;21.07;;
9424;SDS011;17139;52.140;11.636;2024-03-02T02:48:40;51.57;;;31.43;;
9424;SDS011;17139;52.140;11.636;2024-03-02T02:51:06;42.60;;;25.37;;
9424;SDS011;17139;52.140;11.636;2024-03-02T02:53:32;36.97;;;23.00;;
9424;SDS011;17139;52.140;11.636;2024-03-02T02:55:59;44.83;;;26.67;;
9424;SDS011;17139;52.140;11.636;2024-03-02T02:58:25;37.20;;;22.17;;
9424;SDS011;17139;52.140;11.636;2024-03-02T03:00:51;34.97;;;20.97;;
9424;SDS011;17139;52.140;11.636;2024-03-02T03:03:17;36.47;;;22.53;;
9424;SDS011;17139;52.140;11.636;2024-03-02T03:05:43;34.03;;;21.87;;
9424;SDS011;17139;52.140;11.636;2024-03-02T03:08:09;29.43;;;19.73;;
9424;SDS011;17139;52.140;11.636;2024-03-02T03:10:35;31.67;;;20.40;;
9424;SDS011;17139;52.140;11.636;2024-03-02T03:13:03;33.47;;;21.13;;
9424;SDS011;17139;52.140;11.636;2024-03-02T03:15:29;35.43;;;21.50;;
9424;SDS011;17139;52.140;11.636;2024-03-02T03:17:55;30.63;;;21.07;;
9424;SDS011;17139;52.140;11.636;2024-03-02T03:20:21;35.73;;;22.23;;
9424;SDS011;17139;52.140;11.636;2024-03-02T03:22:46;38.67;;;21.90;;
9424;SDS011;17139;52.140;11.636;2024-03-02T03:25:13;34.63;;;21.03;;
9424;SDS011;17139;52.140;11.636;2024-03-02T03:27:39;31.33;;;21.83;;
9424;SDS011;17139;52.140;11.636;2024-03-02T03:30:07;36.63;;;21.50;;
9424;SDS011;17139;52.140;11.636;2024-03-02T03:32:33;35.40;;;22.10;;
9424;SDS011;17139;52.140;11.636;2024-03-02T03:34:59;33.77;;;20.50;;
9424;SDS011;17139;52.140;11.636;2024-03-02T03:37:25;27.60;;;20.37;;
9424;SDS011;17139;52.140;11.636;2024-03-02T03:39:51;43.72;;;29.85;;
9424;SDS011;17139;52.140;11.636;2024-03-02T03:42:17;32.83;;;23.13;;
9424;SDS011;17139;52.140;11.636;2024-03-02T03:44:43;30.73;;;21.07;;
9424;SDS011;17139;52.140;11.636;2024-03-02T03:47:10;32.03;;;21.80;;
9424;SDS011;17139;52.140;11.636;2024-03-02T03:49:36;35.53;;;21.53;;
9424;SDS011;17139;52.140;11.636;2024-03-02T03:52:02;34.53;;;22.70;;
9424;SDS011;17139;52.140;11.636;2024-03-02T03:54:28;33.37;;;20.77;;
9424;SDS011;17139;52.140;11.636;2024-03-02T03:56:55;35.90;;;21.60;;
9424;SDS011;17139;52.140;11.636;2024-03-02T03:59:21;34.87;;;21.23;;
9424;SDS011;17139;52.140;11.636;2024-03-02T04:01:47;30.33;;;21.17;;
9424;SDS011;17139;52.140;11.636;2024-03-02T04:04:14;34.30;;;21.20;;
9424;SDS011;17139;52.140;11.636;2024-03-02T04:06:40;31.23;;;20.10;;
9424;SDS011;17139;52.140;11.636;2024-03-02T04:09:06;33.10;;;20.57;;
9424;SDS011;17139;52.140;11.636;2024-03-02T04:11:32;31.83;;;21.20;;
9424;SDS011;17139;52.140;11.636;2024-03-02T04:13:58;28.67;;;20.57;;
9424;SDS011;17139;52.140;11.636;2024-03-02T04:16:24;39.47;;;21.70;;
9424;SDS011;17139;52.140;11.636;2024-03-02T04:18:50;32.37;;;20.77;;
9424;SDS011;17139;52.140;11.636;2024-03-02T04:21:17;36.43;;;22.00;;
9424;SDS011;17139;52.140;11.636;2024-03-02T04:23:43;34.83;;;21.50;;
9424;SDS011;17139;52.140;11.636;2024-03-02T04:26:09;32.03;;;20.50;;
9424;SDS011;17139;52.140;11.636;2024-03-02T04:28:35;33.87;;;20.93;;
9424;SDS011;17139;52.140;11.636;2024-03-02T04:31:01;49.22;;;30.38;;
9424;SDS011;17139;52.140;11.636;2024-03-02T04:33:27;33.80;;;22.93;;
9424;SDS011;17139;52.140;11.636;2024-03-02T04:35:53;35.87;;;22.23;;
9424;SDS011;17139;52.140;11.636;2024-03-02T04:38:20;46.58;;;29.92;;
9424;SDS011;17139;52.140;11.636;2024-03-02T04:40:46;40.03;;;23.50;;
9424;SDS011;17139;52.140;11.636;2024-03-02T04:43:12;32.77;;;21.43;;
9424;SDS011;17139;52.140;11.636;2024-03-02T04:45:38;33.43;;;21.87;;
9424;SDS011;17139;52.140;11.636;2024-03-02T04:48:04;33.80;;;21.60;;
9424;SDS011;17139;52.140;11.636;2024-03-02T04:50:30;29.70;;;20.47;;
9424;SDS011;17139;52.140;11.636;2024-03-02T04:52:56;34.53;;;19.90;;
9424;SDS011;17139;52.140;11.636;2024-03-02T04:55:24;26.53;;;21.10;;
9424;SDS011;17139;52.140;11.636;2024-03-02T04:57:50;36.33;;;21.90;;
9424;SDS011;17139;52.140;11.636;2024-03-02T05:00:16;27.27;;;20.27;;
9424;SDS011;17139;52.140;11.636;2024-03-02T05:02:42;35.33;;;21.17;;
9424;SDS011;17139;52.140;11.636;2024-03-02T05:05:08;27.87;;;19.67;;
9424;SDS011;17139;52.140;11.636;2024-03-02T05:07:34;32.40;;;22.00;;
9424;SDS011;17139;52.140;11.636;2024-03-02T05:10:00;29.07;;;19.80;;
9424;SDS011;17139;52.140;11.636;2024-03-02T05:12:27;37.67;;;20.27;;
9424;SDS011;17139;52.140;11.636;2024-03-02T05:14:53;31.77;;;20.80;;
9424;SDS011;17139;52.140;11.636;2024-03-02T05:17:19;35.53;;;22.00;;
9424;SDS011;17139;52.140;11.636;2024-03-02T05:19:45;34.87;;;22.03;;
9424;SDS011;17139;52.140;11.636;2024-03-02T05:22:11;31.43;;;20.97;;
9424;SDS011;17139;52.140;11.636;2024-03-02T05:24:37;31.40;;;20.43;;
9424;SDS011;17139;52.140;11.636;2024-03-02T05:27:03;34.50;;;22.23;;
9424;SDS011;17139;52.140;11.636;2024-03-02T05:29:30;33.37;;;21.03;;
9424;SDS011;17139;52.140;11.636;2024-03-02T05:31:56;35.37;;;21.17;;
9424;SDS011;17139;52.140;11.636;2024-03-02T05:34:22;29.03;;;20.43;;
9424;SDS011;17139;52.140;11.636;2024-03-02T05:36:48;35.10;;;22.80;;
9424;SDS011;17139;52.140;11.636;2024-03-02T05:39:14;33.70;;;21.33;;
9424;SDS011;17139;52.140;11.636;2024-03-02T05:41:40;31.30;;;21.37;;
9424;SDS011;17139;52.140;11.636;2024-03-02T05:44:06;30.90;;;19.90;;
9424;SDS011;17139;52.140;11.636;2024-03-02T05:46:33;35.27;;;21.40;;
9424;SDS011;17139;52.140;11.636;2024-03-02T05:48:59;29.53;;;20.67;;
9424;SDS011;17139;52.140;11.636;2024-03-02T05:51:25;34.43;;;21.20;;
9424;SDS011;17139;52.140;11.636;2024-03-02T05:53:52;42.07;;;20.60;;
9424;SDS011;17139;52.140;11.636;2024-03-02T05:56:18;28.97;;;20.63;;
9424;SDS011;17139;52.140;11.636;2024-03-02T05:58:44;30.50;;;19.37;;
9424;SDS011;17139;52.140;11.636;2024-03-02T06:01:10;32.27;;;19.90;;
9424;SDS011;17139;52.140;11.636;2024-03-02T06:03:37;33.33;;;21.33;;
9424;SDS011;17139;52.140;11.636;2024-03-02T06:06:04;29.93;;;19.87;;
9424;SDS011;17139;52.140;11.636;2024-03-02T06:08:29;37.23;;;21.07;;
9424;SDS011;17139;52.140;11.636;2024-03-02T06:10:55;32.83;;;21.20;;
9424;SDS011;17139;52.140;11.636;2024-03-02T06:13:21;35.43;;;21.73;;
9424;SDS011;17139;52.140;11.636;2024-03-02T06:15:47;42.83;;;28.88;;
9424;SDS011;17139;52.140;11.636;2024-03-02T06:18:13;36.73;;;23.67;;
9424;SDS011;17139;52.140;11.636;2024-03-02T06:20:40;30.03;;;21.83;;
9424;SDS011;17139;52.140;11.636;2024-03-02T06:23:06;38.13;;;24.80;;
9424;SDS011;17139;52.140;11.636;2024-03-02T06:25:32;30.27;;;20.77;;
9424;SDS011;17139;52.140;11.636;2024-03-02T06:27:58;27.13;;;21.03;;
9424;SDS011;17139;52.140;11.636;2024-03-02T06:30:24;33.47;;;21.50;;
9424;SDS011;17139;52.140;11.636;2024-03-02T06:32:50;32.70;;;21.43;;
9424;SDS011;17139;52.140;11.636;2024-03-02T06:35:16;29.83;;;19.83;;
9424;SDS011;17139;52.140;11.636;2024-03-02T06:37:43;27.77;;;20.30;;
9424;SDS011;17139;52.140;11.636;2024-03-02T06:40:09;28.33;;;19.43;;
9424;SDS011;17139;52.140;11.636;2024-03-02T06:42:35;27.83;;;20.10;;
9424;SDS011;17139;52.140;11.636;2024-03-02T06:45:01;37.27;;;20.00;;
9424;SDS011;17139;52.140;11.636;2024-03-02T06:47:28;29.63;;;20.83;;
9424;SDS011;17139;52.140;11.636;2024-03-02T06:49:54;25.97;;;19.73;;
9424;SDS011;17139;52.140;11.636;2024-03-02T06:52:20;31.53;;;19.70;;
9424;SDS011;17139;52.140;11.636;2024-03-02T06:54:47;30.97;;;21.00;;
9424;SDS011;17139;52.140;11.636;2024-03-02T06:57:13;31.23;;;20.80;;
9424;SDS011;17139;52.140;11.636;2024-03-02T06:59:39;26.87;;;19.80;;
9424;SDS011;17139;52.140;11.636;2024-03-02T07:02:05;24.40;;;20.23;;
9424;SDS011;17139;52.140;11.636;2024-03-02T07:04:30;26.00;;;19.10;;
9424;SDS011;17139;52.140;11.636;2024-03-02T07:06:56;30.17;;;19.70;;
9424;SDS011;17139;52.140;11.636;2024-03-02T07:09:22;31.93;;;20.27;;
9424;SDS011;17139;52.140;11.636;2024-03-02T07:11:50;29.57;;;20.33;;
9424;SDS011;17139;52.140;11.636;2024-03-02T07:14:16;29.47;;;20.30;;
9424;SDS011;17139;52.140;11.636;2024-03-02T07:16:42;27.13;;;20.37;;
9424;SDS011;17139;52.140;11.636;2024-03-02T07:19:08;31.40;;;20.40;;
9424;SDS011;17139;52.140;11.636;2024-03-02T07:21:34;29.70;;;19.63;;
9424;SDS011;17139;52.140;11.636;2024-03-02T07:24:00;33.90;;;21.63;;
9424;SDS011;17139;52.140;11.636;2024-03-02T07:26:26;25.47;;;18.77;;
9424;SDS011;17139;52.140;11.636;2024-03-02T07:28:53;25.17;;;19.10;;
9424;SDS011;17139;52.140;11.636;2024-03-02T07:31:19;28.90;;;19.60;;
9424;SDS011;17139;52.140;11.636;2024-03-02T07:33:45;29.57;;;18.80;;
9424;SDS011;17139;52.140;11.636;2024-03-02T07:36:11;31.73;;;19.87;;
9424;SDS011;17139;52.140;11.636;2024-03-02T07:38:38;28.50;;;19.40;;
9424;SDS011;17139;52.140;11.636;2024-03-02T07:41:04;21.73;;;18.07;;
9424;SDS011;17139;52.140;11.636;2024-03-02T07:43:30;25.50;;;18.50;;
9424;SDS011;17139;52.140;11.636;2024-03-02T07:45:57;25.63;;;18.73;;
9424;SDS011;17139;52.140;11.636;2024-03-02T07:48:23;28.17;;;18.33;;
9424;SDS011;17139;52.140;11.636;2024-03-02T07:50:49;25.60;;;19.73;;
9424;SDS011;17139;52.140;11.636;2024-03-02T07:53:15;30.50;;;21.40;;
9424;SDS011;17139;52.140;11.636;2024-03-02T07:55:41;29.57;;;20.73;;
9424;SDS011;17139;52.140;11.636;2024-03-02T07:58:07;27.10;;;20.07;;
9424;SDS011;17139;52.140;11.636;2024-03-02T08:00:34;30.47;;;19.50;;
9424;SDS011;17139;52.140;11.636;2024-03-02T08:03:01;28.80;;;18.90;;
9424;SDS011;17139;52.140;11.636;2024-03-02T08:05:27;30.33;;;18.83;;
9424;SDS011;17139;52.140;11.636;2024-03-02T08:07:53;23.77;;;18.07;;
9424;SDS011;17139;52.140;11.636;2024-03-02T08:10:19;23.80;;;17.63;;
9424;SDS011;17139;52.140;11.636;2024-03-02T08:12:45;23.70;;;18.13;;
9424;SDS011;17139;52.140;11.636;2024-03-02T08:15:11;27.40;;;19.40;;
9424;SDS011;17139;52.140;11.636;2024-03-02T08:17:37;22.33;;;18.47;;
9424;SDS011;17139;52.140;11.636;2024-03-02T08:20:05;25.97;;;19.63;;
9424;SDS011;17139;52.140;11.636;2024-03-02T08:22:32;29.83;;;19.67;;
9424;SDS011;17139;52.140;11.636;2024-03-02T08:24:58;23.50;;;18.07;;
9424;SDS011;17139;52.140;11.636;2024-03-02T08:27:24;25.10;;;18.23;;
9424;SDS011;17139;52.140;11.636;2024-03-02T08:29:50;22.57;;;17.83;;
9424;SDS011;17139;52.140;11.636;2024-03-02T08:32:16;26.98;;;17.75;;
9424;SDS011;17139;52.140;11.636;2024-03-02T08:34:43;22.60;;;17.30;;
9424;SDS011;17139;52.140;11.636;2024-03-02T08:37:11;21.97;;;17.20;;
9424;SDS011;17139;52.140;11.636;2024-03-02T08:39:36;22.43;;;17.27;;
9424;SDS011;17139;52.140;11.636;2024-03-02T08:42:03;24.43;;;16.73;;
9424;SDS011;17139;52.140;11.636;2024-03-02T08:44:29;25.10;;;17.00;;
9424;SDS011;17139;52.140;11.636;2024-03-02T08:46:55;24.93;;;16.17;;
9424;SDS011;17139;52.140;11.636;2024-03-02T08:49:21;24.63;;;15.87;;
9424;SDS011;17139;52.140;11.636;2024-03-02T08:51:47;18.13;;;16.00;;
9424;SDS011;17139;52.140;11.636;2024-03-02T08:54:14;21.40;;;17.27;;
9424;SDS011;17139;52.140;11.636;2024-03-02T08:56:40;22.33;;;16.80;;
9424;SDS011;17139;52.140;11.636;2024-03-02T08:59:06;27.13;;;18.07;;
9424;SDS011;17139;52.140;11.636;2024-03-02T09:01:32;22.63;;;16.90;;
9424;SDS011;17139;52.140;11.636;2024-03-02T09:03:58;21.63;;;15.77;;
9424;SDS011;17139;52.140;11.636;2024-03-02T09:06:24;21.30;;;16.30;;
9424;SDS011;17139;52.140;11.636;2024-03-02T09:08:50;24.70;;;17.00;;
9424;SDS011;17139;52.140;11.636;2024-03-02T09:11:18;21.23;;;16.73;;
9424;SDS011;17139;52.140;11.636;2024-03-02T09:13:43;23.87;;;17.47;;
9424;SDS011;17139;52.140;11.636;2024-03-02T09:16:09;18.17;;;15.50;;
9424;SDS011;17139;52.140;11.636;2024-03-02T09:18:35;19.93;;;16.63;;
9424;SDS011;17139;52.140;11.636;2024-03-02T09:21:02;22.77;;;19.13;;
9424;SDS011;17139;52.140;11.636;2024-03-02T09:23:28;23.30;;;16.65;;
9424;SDS011;17139;52.140;11.636;2024-03-02T09:25:54;22.50;;;17.33;;
9424;SDS011;17139;52.140;11.636;2024-03-02T09:28:21;23.50;;;16.80;;
9424;SDS011;17139;52.140;11.636;2024-03-02T09:30:47;17.07;;;15.27;;
9424;SDS011;17139;52.140;11.636;2024-03-02T09:33:13;17.88;;;15.98;;
9424;SDS011;17139;52.140;11.636;2024-03-02T09:35:39;18.58;;;15.02;;
9424;SDS011;17139;52.140;11.636;2024-03-02T09:38:05;19.58;;;15.10;;
9424;SDS011;17139;52.140;11.636;2024-03-02T09:40:31;17.58;;;14.75;;
9424;SDS011;17139;52.140;11.636;2024-03-02T09:42:57;22.50;;;18.60;;
9424;SDS011;17139;52.140;11.636;2024-03-02T09:45:25;20.52;;;16.13;;
9424;SDS011;17139;52.140;11.636;2024-03-02T09:47:51;21.77;;;15.27;;
9424;SDS011;17139;52.140;11.636;2024-03-02T09:50:17;16.13;;;14.23;;
9424;SDS011;17139;52.140;11.636;2024-03-02T09:52:43;17.65;;;14.52;;
9424;SDS011;17139;52.140;11.636;2024-03-02T09:55:13;17.38;;;13.48;;
9424;SDS011;17139;52.140;11.636;2024-03-02T09:57:40;19.58;;;15.02;;
9424;SDS011;17139;52.140;11.636;2024-03-02T10:00:06;17.45;;;14.35;;
9424;SDS011;17139;52.140;11.636;2024-03-02T10:02:34;17.05;;;13.27;;
9424;SDS011;17139;52.140;11.636;2024-03-02T10:05:00;18.17;;;14.07;;
9424;SDS011;17139;52.140;11.636;2024-03-02T10:07:26;20.40;;;16.93;;
9424;SDS011;17139;52.140;11.636;2024-03-02T10:09:52;21.77;;;15.40;;
9424;SDS011;17139;52.140;11.636;2024-03-02T10:12:18;17.80;;;15.20;;
9424;SDS011;17139;52.140;11.636;2024-03-02T10:14:44;20.85;;;15.23;;
9424;SDS011;17139;52.140;11.636;2024-03-02T10:17:11;18.48;;;14.48;;
9424;SDS011;17139;52.140;11.636;2024-03-02T10:19:39;18.30;;;14.40;;
9424;SDS011;17139;52.140;11.636;2024-03-02T10:22:06;20.13;;;14.75;;
9424;SDS011;17139;52.140;11.636;2024-03-02T10:24:36;17.20;;;15.27;;
9424;SDS011;17139;52.140;11.636;2024-03-02T10:27:06;17.38;;;15.23;;
9424;SDS011;17139;52.140;11.636;2024-03-02T10:29:33;21.10;;;14.40;;
9424;SDS011;17139;52.140;11.636;2024-03-02T10:32:01;19.38;;;14.10;;
9424;SDS011;17139;52.140;11.636;2024-03-02T10:34:28;21.15;;;16.02;;
9424;SDS011;17139;52.140;11.636;2024-03-02T10:36:55;20.45;;;14.55;;
9424;SDS011;17139;52.140;11.636;2024-03-02T10:39:21;19.70;;;17.30;;
9424;SDS011;17139;52.140;11.636;2024-03-02T10:41:50;20.55;;;15.80;;
9424;SDS011;17139;52.140;11.636;2024-03-02T10:44:18;19.48;;;15.63;;
9424;SDS011;17139;52.140;11.636;2024-03-02T10:46:45;17.67;;;14.88;;
9424;SDS011;17139;52.140;11.636;2024-03-02T10:49:12;19.70;;;15.32;;
9424;SDS011;17139;52.140;11.636;2024-03-02T10:51:38;19.58;;;14.75;;
9424;SDS011;17139;52.140;11.636;2024-03-02T10:54:06;19.38;;;15.98;;
9424;SDS011;17139;52.140;11.636;2024-03-02T10:56:32;19.30;;;14.55;;
9424;SDS011;17139;52.140;11.636;2024-03-02T10:59:02;17.33;;;14.98;;
9424;SDS011;17139;52.140;11.636;2024-03-02T11:01:32;22.08;;;18.58;;
9424;SDS011;17139;52.140;11.636;2024-03-02T11:03:59;19.85;;;15.60;;
9424;SDS011;17139;52.140;11.636;2024-03-02T11:06:29;16.63;;;14.77;;
9424;SDS011;17139;52.140;11.636;2024-03-02T11:08:57;23.20;;;17.63;;
9424;SDS011;17139;52.140;11.636;2024-03-02T11:11:27;18.98;;;15.93;;
9424;SDS011;17139;52.140;11.636;2024-03-02T11:13:57;16.80;;;13.57;;
9424;SDS011;17139;52.140;11.636;2024-03-02T11:16:28;18.35;;;16.38;;
9424;SDS011;17139;52.140;11.636;2024-03-02T11:18:58;22.88;;;17.98;;
9424;SDS011;17139;52.140;11.636;2024-03-02T11:21:24;25.40;;;18.02;;
9424;SDS011;17139;52.140;11.636;2024-03-02T11:23:50;20.48;;;16.38;;
9424;SDS011;17139;52.140;11.636;2024-03-02T11:26:16;18.13;;;15.13;;
9424;SDS011;17139;52.140;11.636;2024-03-02T11:28:44;19.52;;;15.40;;
9424;SDS011;17139;52.140;11.636;2024-03-02T11:31:10;22.33;;;16.02;;
9424;SDS011;17139;52.140;11.636;2024-03-02T11:33:36;16.23;;;14.50;;
9424;SDS011;17139;52.140;11.636;2024-03-02T11:36:02;23.83;;;18.30;;
9424;SDS011;17139;52.140;11.636;2024-03-02T11:38:31;19.50;;;16.48;;
9424;SDS011;17139;52.140;11.636;2024-03-02T11:40:57;18.50;;;14.80;;
9424;SDS011;17139;52.140;11.636;2024-03-02T11:43:25;16.65;;;14.63;;
9424;SDS011;17139;52.140;11.636;2024-03-02T11:45:57;24.38;;;15.35;;
9424;SDS011;17139;52.140;11.636;2024-03-02T11:48:24;20.88;;;15.07;;
9424;SDS011;17139;52.140;11.636;2024-03-02T11:50:51;22.25;;;14.93;;
9424;SDS011;17139;52.140;11.636;2024-03-02T11:53:17;21.10;;;18.23;;
9424;SDS011;17139;52.140;11.636;2024-03-02T11:55:45;24.05;;;17.52;;
9424;SDS011;17139;52.140;11.636;2024-03-02T11:58:11;20.13;;;16.08;;
9424;SDS011;17139;52.140;11.636;2024-03-02T12:00:37;23.07;;;17.17;;
9424;SDS011;17139;52.140;11.636;2024-03-02T12:03:05;18.58;;;15.50;;
9424;SDS011;17139;52.140;11.636;2024-03-02T12:05:33;18.92;;;15.70;;
9424;SDS011;17139;52.140;11.636;2024-03-02T12:08:00;17.92;;;15.57;;
9424;SDS011;17139;52.140;11.636;2024-03-02T12:10:28;18.15;;;14.65;;
9424;SDS011;17139;52.140;11.636;2024-03-02T12:12:57;14.80;;;13.25;;
9424;SDS011;17139;52.140;11.636;2024-03-02T12:15:25;16.63;;;13.15;;
9424;SDS011;17139;52.140;11.636;2024-03-02T12:17:52;17.95;;;13.55;;
9424;SDS011;17139;52.140;11.636;2024-03-02T12:20:21;15.88;;;13.75;;
9424;SDS011;17139;52.140;11.636;2024-03-02T12:22:47;17.58;;;13.77;;
9424;SDS011;17139;52.140;11.636;2024-03-02T12:25:13;16.98;;;13.43;;
9424;SDS011;17139;52.140;11.636;2024-03-02T12:27:40;20.58;;;13.27;;
9424;SDS011;17139;52.140;11.636;2024-03-02T12:30:08;15.13;;;13.48;;
9424;SDS011;17139;52.140;11.636;2024-03-02T12:32:35;14.88;;;12.90;;
9424;SDS011;17139;52.140;11.636;2024-03-02T12:35:01;14.45;;;13.05;;
9424;SDS011;17139;52.140;11.636;2024-03-02T12:37:30;14.90;;;13.20;;
9424;SDS011;17139;52.140;11.636;2024-03-02T12:39:56;14.20;;;12.57;;
9424;SDS011;17139;52.140;11.636;2024-03-02T12:42:23;14.95;;;13.35;;
9424;SDS011;17139;52.140;11.636;2024-03-02T12:44:49;14.90;;;13.35;;
9424;SDS011;17139;52.140;11.636;2024-03-02T12:47:17;15.85;;;13.73;;
9424;SDS011;17139;52.140;11.636;2024-03-02T12:49:43;14.63;;;13.15;;
9424;SDS011;17139;52.140;11.636;2024-03-02T12:52:11;13.40;;;12.10;;
9424;SDS011;17139;52.140;11.636;2024-03-02T12:54:39;14.77;;;13.25;;
9424;SDS011;17139;52.140;11.636;2024-03-02T12:57:05;14.25;;;12.65;;
9424;SDS011;17139;52.140;11.636;2024-03-02T12:59:31;16.23;;;12.68;;
9424;SDS011;17139;52.140;11.636;2024-03-02T13:01:57;14.15;;;12.75;;
9424;SDS011;17139;52.140;11.636;2024-03-02T13:04:23;14.13;;;12.48;;
9424;SDS011;17139;52.140;11.636;2024-03-02T13:06:49;14.25;;;12.63;;
9424;SDS011;17139;52.140;11.636;2024-03-02T13:09:16;14.35;;;12.93;;
9424;SDS011;17139;52.140;11.636;2024-03-02T13:11:44;17.40;;;13.13;;
9424;SDS011;17139;52.140;11.636;2024-03-02T13:14:10;15.83;;;14.13;;
9424;SDS011;17139;52.140;11.636;2024-03-02T13:16:38;14.70;;;12.20;;
9424;SDS011;17139;52.140;11.636;2024-03-02T13:19:03;15.90;;;13.80;;
9424;SDS011;17139;52.140;11.636;2024-03-02T13:21:32;15.07;;;12.77;;
9424;SDS011;17139;52.140;11.636;2024-03-02T13:23:58;13.70;;;12.25;;
9424;SDS011;17139;52.140;11.636;2024-03-02T13:26:24;14.68;;;12.32;;
9424;SDS011;17139;52.140;11.636;2024-03-02T13:28:51;14.32;;;12.90;;
9424;SDS011;17139;52.140;11.636;2024-03-02T13:31:17;14.60;;;12.85;;
9424;SDS011;17139;52.140;11.636;2024-03-02T13:33:43;12.73;;;11.45;;
9424;SDS011;17139;52.140;11.636;2024-03-02T13:36:09;12.57;;;11.27;;
9424;SDS011;17139;52.140;11.636;2024-03-02T13:38:35;11.30;;;10.27;;
9424;SDS011;17139;52.140;11.636;2024-03-02T13:41:01;12.45;;;11.25;;
9424;SDS011;17139;52.140;11.636;2024-03-02T13:43:27;12.65;;;11.55;;
9424;SDS011;17139;52.140;11.636;2024-03-02T13:45:55;14.93;;;12.63;;
9424;SDS011;17139;52.140;11.636;2024-03-02T13:48:20;12.73;;;11.40;;
9424;SDS011;17139;52.140;11.636;2024-03-02T13:50:46;13.07;;;11.80;;
9424;SDS011;17139;52.140;11.636;2024-03-02T13:53:12;12.27;;;10.98;;
9424;SDS011;17139;52.140;11.636;2024-03-02T13:55:38;13.15;;;10.88;;
9424;SDS011;17139;52.140;11.636;2024-03-02T13:58:04;15.20;;;13.70;;
9424;SDS011;17139;52.140;11.636;2024-03-02T14:00:31;14.70;;;12.65;;
9424;SDS011;17139;52.140;11.636;2024-03-02T14:02:59;14.57;;;11.60;;
9424;SDS011;17139;52.140;11.636;2024-03-02T14:05:25;17.30;;;14.13;;
9424;SDS011;17139;52.140;11.636;2024-03-02T14:07:51;13.07;;;11.77;;
9424;SDS011;17139;52.140;11.636;2024-03-02T14:10:17;12.73;;;11.63;;
9424;SDS011;17139;52.140;11.636;2024-03-02T14:12:43;11.70;;;10.60;;
9424;SDS011;17139;52.140;11.636;2024-03-02T14:15:09;12.88;;;11.48;;
9424;SDS011;17139;52.140;11.636;2024-03-02T14:17:35;13.48;;;10.23;;